sensor_id;sensor_type;location;lat;lon;timestamp;P1;durP1;ratioP1;P2;durP2;ratioP2
57307;SDS011;43152;50.968;18.214;2023-04-04T00:09:13;15.20;;;4.70;;
57307;SDS011;43152;50.968;18.214;2023-04-04T00:18:56;10.10;;;3.40;;
57307;SDS011;43152;50.968;18.214;2023-04-04T00:28:41;26.90;;;5.40;;
57307;SDS011;43152;50.968;18.214;2023-04-04T00:38:24;13.50;;;4.40;;
57307;SDS011;43152;50.968;18.214;2023-04-04T00:48:07;23.30;;;4.10;;
57307;SDS011;43152;50.968;18.214;2023-04-04T00:57:50;7.40;;;2.90;;
57307;SDS011;43152;50.968;18.214;2023-04-04T01:07:34;14.30;;;3.70;;
57307;SDS011;43152;50.968;18.214;2023-04-04T01:17:20;19.50;;;4.10;;
57307;SDS011;43152;50.968;18.214;2023-04-04T01:27:17;8.20;;;2.80;;
57307;SDS011;43152;50.968;18.214;2023-04-04T01:47:41;20.50;;;5.10;;
57307;SDS011;43152;50.968;18.214;2023-04-04T01:57:25;13.80;;;4.80;;
57307;SDS011;43152;50.968;18.214;2023-04-04T02:07:08;13.30;;;3.20;;
57307;SDS011;43152;50.968;18.214;2023-04-04T02:16:51;5.70;;;2.90;;
57307;SDS011;43152;50.968;18.214;2023-04-04T02:26:34;18.30;;;2.80;;
57307;SDS011;43152;50.968;18.214;2023-04-04T02:36:17;17.80;;;7.00;;
57307;SDS011;43152;50.968;18.214;2023-04-04T02:45:59;18.50;;;6.30;;
57307;SDS011;43152;50.968;18.214;2023-04-04T02:55:42;50.70;;;11.00;;
57307;SDS011;43152;50.968;18.214;2023-04-04T03:05:25;8.90;;;4.60;;
57307;SDS011;43152;50.968;18.214;2023-04-04T03:15:10;45.60;;;9.30;;
57307;SDS011;43152;50.968;18.214;2023-04-04T03:24:52;24.80;;;7.90;;
57307;SDS011;43152;50.968;18.214;2023-04-04T03:34:34;27.90;;;7.80;;
57307;SDS011;43152;50.968;18.214;2023-04-04T03:44:18;29.20;;;6.60;;
57307;SDS011;43152;50.968;18.214;2023-04-04T03:54:00;20.20;;;6.10;;
57307;SDS011;43152;50.968;18.214;2023-04-04T04:03:45;22.70;;;7.50;;
57307;SDS011;43152;50.968;18.214;2023-04-04T04:13:29;31.90;;;8.10;;
57307;SDS011;43152;50.968;18.214;2023-04-04T04:23:11;23.30;;;7.00;;
57307;SDS011;43152;50.968;18.214;2023-04-04T04:32:53;33.60;;;10.70;;
57307;SDS011;43152;50.968;18.214;2023-04-04T04:42:44;22.50;;;7.80;;
57307;SDS011;43152;50.968;18.214;2023-04-04T04:52:30;21.00;;;9.70;;
57307;SDS011;43152;50.968;18.214;2023-04-04T05:02:17;11.80;;;5.50;;
57307;SDS011;43152;50.968;18.214;2023-04-04T05:12:03;24.10;;;9.80;;
57307;SDS011;43152;50.968;18.214;2023-04-04T05:21:45;17.60;;;5.10;;
57307;SDS011;43152;50.968;18.214;2023-04-04T05:31:28;22.20;;;6.20;;
57307;SDS011;43152;50.968;18.214;2023-04-04T05:41:12;13.60;;;5.60;;
57307;SDS011;43152;50.968;18.214;2023-04-04T05:50:55;8.40;;;3.50;;
57307;SDS011;43152;50.968;18.214;2023-04-04T06:00:43;10.60;;;3.40;;
57307;SDS011;43152;50.968;18.214;2023-04-04T06:10:25;3.10;;;0.80;;
57307;SDS011;43152;50.968;18.214;2023-04-04T06:20:10;7.30;;;1.70;;
57307;SDS011;43152;50.968;18.214;2023-04-04T06:29:52;7.20;;;2.30;;
57307;SDS011;43152;50.968;18.214;2023-04-04T06:39:35;17.30;;;1.40;;
57307;SDS011;43152;50.968;18.214;2023-04-04T06:49:19;8.70;;;1.70;;
57307;SDS011;43152;50.968;18.214;2023-04-04T06:59:01;8.90;;;2.00;;
57307;SDS011;43152;50.968;18.214;2023-04-04T07:08:46;7.50;;;1.50;;
57307;SDS011;43152;50.968;18.214;2023-04-04T07:18:29;3.90;;;0.90;;
57307;SDS011;43152;50.968;18.214;2023-04-04T07:28:11;3.20;;;0.70;;
57307;SDS011;43152;50.968;18.214;2023-04-04T07:37:54;6.40;;;1.20;;
57307;SDS011;43152;50.968;18.214;2023-04-04T07:47:44;8.60;;;1.20;;
57307;SDS011;43152;50.968;18.214;2023-04-04T07:57:28;9.60;;;1.70;;
57307;SDS011;43152;50.968;18.214;2023-04-04T08:14:27;6.20;;;1.20;;
57307;SDS011;43152;50.968;18.214;2023-04-04T08:24:10;15.50;;;5.80;;
57307;SDS011;43152;50.968;18.214;2023-04-04T08:33:54;6.40;;;2.60;;
57307;SDS011;43152;50.968;18.214;2023-04-04T08:43:40;9.30;;;1.70;;
57307;SDS011;43152;50.968;18.214;2023-04-04T08:53:29;4.80;;;1.70;;
57307;SDS011;43152;50.968;18.214;2023-04-04T09:03:23;3.30;;;0.90;;
57307;SDS011;43152;50.968;18.214;2023-04-04T09:13:13;8.20;;;2.80;;
57307;SDS011;43152;50.968;18.214;2023-04-04T09:23:05;6.70;;;1.30;;
57307;SDS011;43152;50.968;18.214;2023-04-04T09:32:52;3.00;;;1.20;;
57307;SDS011;43152;50.968;18.214;2023-04-04T09:42:36;11.80;;;2.00;;
57307;SDS011;43152;50.968;18.214;2023-04-04T09:52:30;5.60;;;1.90;;
57307;SDS011;43152;50.968;18.214;2023-04-04T10:02:21;7.50;;;2.50;;
57307;SDS011;43152;50.968;18.214;2023-04-04T10:12:08;6.80;;;1.70;;
57307;SDS011;43152;50.968;18.214;2023-04-04T10:21:56;4.80;;;1.00;;
57307;SDS011;43152;50.968;18.214;2023-04-04T10:31:39;6.90;;;1.20;;
57307;SDS011;43152;50.968;18.214;2023-04-04T10:41:44;6.00;;;1.20;;
57307;SDS011;43152;50.968;18.214;2023-04-04T10:51:32;4.70;;;1.30;;
57307;SDS011;43152;50.968;18.214;2023-04-04T11:01:16;7.80;;;2.10;;
57307;SDS011;43152;50.968;18.214;2023-04-04T11:12:31;17.10;;;4.00;;
57307;SDS011;43152;50.968;18.214;2023-04-04T11:22:34;4.60;;;1.10;;
57307;SDS011;43152;50.968;18.214;2023-04-04T11:32:41;1.10;;;0.30;;
57307;SDS011;43152;50.968;18.214;2023-04-04T11:42:36;0.00;;;0.00;;
57307;SDS011;43152;50.968;18.214;2023-04-04T11:52:32;10.90;;;2.50;;
57307;SDS011;43152;50.968;18.214;2023-04-04T12:02:35;5.60;;;0.80;;
57307;SDS011;43152;50.968;18.214;2023-04-04T12:12:21;14.00;;;3.60;;
57307;SDS011;43152;50.968;18.214;2023-04-04T12:22:07;6.60;;;2.10;;
57307;SDS011;43152;50.968;18.214;2023-04-04T12:39:18;7.70;;;2.00;;
57307;SDS011;43152;50.968;18.214;2023-04-04T12:49:27;3.10;;;1.10;;
57307;SDS011;43152;50.968;18.214;2023-04-04T12:59:23;6.70;;;2.40;;
57307;SDS011;43152;50.968;18.214;2023-04-04T13:09:20;8.00;;;2.30;;
57307;SDS011;43152;50.968;18.214;2023-04-04T13:19:26;5.20;;;1.80;;
57307;SDS011;43152;50.968;18.214;2023-04-04T13:29:09;4.40;;;1.90;;
57307;SDS011;43152;50.968;18.214;2023-04-04T13:38:52;10.70;;;5.40;;
57307;SDS011;43152;50.968;18.214;2023-04-04T13:48:34;9.50;;;3.40;;
57307;SDS011;43152;50.968;18.214;2023-04-04T13:58:16;14.40;;;3.00;;
57307;SDS011;43152;50.968;18.214;2023-04-04T14:08:03;9.10;;;3.70;;
57307;SDS011;43152;50.968;18.214;2023-04-04T14:17:46;16.80;;;3.20;;
57307;SDS011;43152;50.968;18.214;2023-04-04T14:27:29;12.90;;;2.30;;
57307;SDS011;43152;50.968;18.214;2023-04-04T14:37:12;8.80;;;3.00;;
57307;SDS011;43152;50.968;18.214;2023-04-04T14:46:54;9.50;;;4.00;;
57307;SDS011;43152;50.968;18.214;2023-04-04T14:56:36;14.90;;;3.90;;
57307;SDS011;43152;50.968;18.214;2023-04-04T15:06:21;10.20;;;4.20;;
57307;SDS011;43152;50.968;18.214;2023-04-04T15:16:05;12.90;;;4.40;;
57307;SDS011;43152;50.968;18.214;2023-04-04T15:25:48;3.10;;;1.30;;
57307;SDS011;43152;50.968;18.214;2023-04-04T15:35:30;7.40;;;2.10;;
57307;SDS011;43152;50.968;18.214;2023-04-04T15:45:13;4.50;;;1.10;;
57307;SDS011;43152;50.968;18.214;2023-04-04T15:54:57;17.20;;;3.90;;
57307;SDS011;43152;50.968;18.214;2023-04-04T16:04:39;20.70;;;3.60;;
57307;SDS011;43152;50.968;18.214;2023-04-04T16:14:22;0.20;;;0.20;;
57307;SDS011;43152;50.968;18.214;2023-04-04T16:24:07;13.80;;;4.20;;
57307;SDS011;43152;50.968;18.214;2023-04-04T16:33:56;6.30;;;2.20;;
57307;SDS011;43152;50.968;18.214;2023-04-04T16:43:40;22.00;;;5.30;;
57307;SDS011;43152;50.968;18.214;2023-04-04T16:53:23;21.20;;;6.10;;
57307;SDS011;43152;50.968;18.214;2023-04-04T17:03:06;10.00;;;4.90;;
57307;SDS011;43152;50.968;18.214;2023-04-04T17:12:48;17.10;;;5.90;;
57307;SDS011;43152;50.968;18.214;2023-04-04T17:22:32;15.30;;;5.90;;
57307;SDS011;43152;50.968;18.214;2023-04-04T17:32:15;18.80;;;6.20;;
57307;SDS011;43152;50.968;18.214;2023-04-04T17:42:01;20.00;;;7.30;;
57307;SDS011;43152;50.968;18.214;2023-04-04T17:51:46;19.10;;;5.70;;
57307;SDS011;43152;50.968;18.214;2023-04-04T18:01:33;16.30;;;4.60;;
57307;SDS011;43152;50.968;18.214;2023-04-04T18:11:17;11.00;;;3.80;;
57307;SDS011;43152;50.968;18.214;2023-04-04T18:21:00;15.50;;;5.10;;
57307;SDS011;43152;50.968;18.214;2023-04-04T18:30:43;13.30;;;3.90;;
57307;SDS011;43152;50.968;18.214;2023-04-04T18:40:26;72.60;;;24.80;;
57307;SDS011;43152;50.968;18.214;2023-04-04T18:50:09;103.30;;;34.00;;
57307;SDS011;43152;50.968;18.214;2023-04-04T18:59:53;174.60;;;48.90;;
57307;SDS011;43152;50.968;18.214;2023-04-04T19:09:36;127.20;;;35.50;;
57307;SDS011;43152;50.968;18.214;2023-04-04T19:19:19;122.80;;;37.20;;
57307;SDS011;43152;50.968;18.214;2023-04-04T19:29:03;102.20;;;37.80;;
57307;SDS011;43152;50.968;18.214;2023-04-04T19:38:51;77.50;;;26.00;;
57307;SDS011;43152;50.968;18.214;2023-04-04T20:05:53;95.10;;;29.40;;
57307;SDS011;43152;50.968;18.214;2023-04-04T20:25:51;45.20;;;8.80;;
57307;SDS011;43152;50.968;18.214;2023-04-04T20:35:54;77.20;;;18.00;;
57307;SDS011;43152;50.968;18.214;2023-04-04T20:45:40;66.10;;;14.50;;
57307;SDS011;43152;50.968;18.214;2023-04-04T20:55:45;75.50;;;19.00;;
57307;SDS011;43152;50.968;18.214;2023-04-04T21:05:38;43.00;;;16.80;;
57307;SDS011;43152;50.968;18.214;2023-04-04T21:15:40;55.80;;;17.40;;
57307;SDS011;43152;50.968;18.214;2023-04-04T21:35:50;77.40;;;19.60;;
57307;SDS011;43152;50.968;18.214;2023-04-04T21:45:46;365.20;;;68.90;;
57307;SDS011;43152;50.968;18.214;2023-04-04T21:55:29;343.20;;;65.40;;
57307;SDS011;43152;50.968;18.214;2023-04-04T22:22:07;112.80;;;30.40;;
57307;SDS011;43152;50.968;18.214;2023-04-04T22:31:53;69.90;;;20.90;;
57307;SDS011;43152;50.968;18.214;2023-04-04T22:41:39;95.50;;;17.80;;
57307;SDS011;43152;50.968;18.214;2023-04-04T22:51:29;45.20;;;14.80;;
57307;SDS011;43152;50.968;18.214;2023-04-04T23:01:17;45.20;;;14.00;;
57307;SDS011;43152;50.968;18.214;2023-04-04T23:10:59;48.70;;;9.50;;
57307;SDS011;43152;50.968;18.214;2023-04-04T23:20:42;12.60;;;3.80;;
57307;SDS011;43152;50.968;18.214;2023-04-04T23:30:24;33.40;;;7.10;;
57307;SDS011;43152;50.968;18.214;2023-04-04T23:40:07;29.80;;;7.70;;
57307;SDS011;43152;50.968;18.214;2023-04-04T23:57:07;15.80;;;6.60;;
